Time;durP1;ratioP1;P1;durP2;ratioP2;P2;SDS_P1;SDS_P2;PMS_P1;PMS_P2;Temp;Humidity;BMP_temperature;BMP_pressure;BME280_temperature;BME280_humidity;BME280_pressure;Samples;Min_cycle;Max_cycle;Signal;HPM_P1;HPM_P2
2022/01/07 00:00:53;;;;;;;51.63;5.40;;;;;;;;;;5031642;28;20033;-67
2022/01/07 00:03:22;;;;;;;39.53;5.32;;;;;;;;;;5034242;28;20026;-67
2022/01/07 00:05:49;;;;;;;34.03;5.55;;;;;;;;;;5014104;28;20021;-70
2022/01/07 00:08:16;;;;;;;29.08;5.68;;;;;;;;;;5031724;28;20021;-66
2022/01/07 00:10:43;;;;;;;31.40;5.65;;;;;;;;;;5032056;28;20032;-66
2022/01/07 00:13:11;;;;;;;37.75;6.10;;;;;;;;;;5031558;28;20112;-68
2022/01/07 00:15:38;;;;;;;44.13;6.28;;;;;;;;;;5031890;28;20041;-67
2022/01/07 00:18:06;;;;;;;52.38;6.35;;;;;;;;;;5031963;28;20021;-69
2022/01/07 00:20:33;;;;;;;45.22;6.78;;;;;;;;;;5032115;28;20543;-70
2022/01/07 00:23:00;;;;;;;42.67;6.90;;;;;;;;;;5027875;28;20128;-69
2022/01/07 00:25:30;;;;;;;45.38;6.55;;;;;;;;;;5020753;28;20397;-68
2022/01/07 00:27:57;;;;;;;27.98;6.45;;;;;;;;;;5011486;28;20088;-68
2022/01/07 00:30:24;;;;;;;23.48;5.38;;;;;;;;;;5012167;28;20101;-69
2022/01/07 00:32:55;;;;;;;29.60;6.38;;;;;;;;;;5011395;28;20380;-68
2022/01/07 00:35:22;;;;;;;56.25;6.93;;;;;;;;;;5012199;28;20032;-66
2022/01/07 00:37:50;;;;;;;43.72;5.68;;;;;;;;;;5012288;28;20025;-66
2022/01/07 00:40:19;;;;;;;40.63;6.70;;;;;;;;;;5012104;28;20102;-67
2022/01/07 00:42:46;;;;;;;39.75;6.60;;;;;;;;;;5011783;28;20057;-68
2022/01/07 00:45:13;;;;;;;54.97;7.47;;;;;;;;;;5011674;28;20033;-67
2022/01/07 00:47:40;;;;;;;31.90;6.15;;;;;;;;;;5011790;28;20025;-69
2022/01/07 00:50:08;;;;;;;39.67;7.00;;;;;;;;;;5011829;28;20026;-66
2022/01/07 00:52:35;;;;;;;34.97;7.43;;;;;;;;;;5010743;28;20104;-66
2022/01/07 00:55:02;;;;;;;52.35;7.43;;;;;;;;;;5010813;28;20030;-66
2022/01/07 00:57:29;;;;;;;31.60;7.00;;;;;;;;;;5011291;28;20046;-67
2022/01/07 00:59:56;;;;;;;43.45;7.60;;;;;;;;;;5021562;28;20543;-67
2022/01/07 01:02:23;;;;;;;54.03;8.80;;;;;;;;;;5025552;28;20488;-66
2022/01/07 01:04:50;;;;;;;51.65;6.95;;;;;;;;;;5003711;28;20144;-67
2022/01/07 01:07:17;;;;;;;41.00;7.18;;;;;;;;;;5030532;28;20040;-67
2022/01/07 01:09:44;;;;;;;41.40;6.25;;;;;;;;;;5012575;28;20559;-69
2022/01/07 01:12:12;;;;;;;49.90;6.78;;;;;;;;;;5024105;28;20026;-68
2022/01/07 01:14:39;;;;;;;51.97;7.18;;;;;;;;;;5019164;28;20041;-69
2022/01/07 01:17:07;;;;;;;69.85;8.70;;;;;;;;;;5026946;28;20029;-68
2022/01/07 01:19:35;;;;;;;78.60;9.75;;;;;;;;;;5014725;28;20034;-65
2022/01/07 01:22:02;;;;;;;76.25;9.32;;;;;;;;;;5016874;28;20036;-66
2022/01/07 01:24:30;;;;;;;59.60;8.20;;;;;;;;;;5018412;28;20048;-67
2022/01/07 01:26:57;;;;;;;68.72;8.40;;;;;;;;;;5012793;28;20026;-63
2022/01/07 01:29:24;;;;;;;44.38;7.00;;;;;;;;;;5014651;28;20026;-65
2022/01/07 01:31:53;;;;;;;49.15;6.57;;;;;;;;;;5013257;28;20056;-67
2022/01/07 01:34:20;;;;;;;54.88;6.68;;;;;;;;;;5014639;28;20064;-69
2022/01/07 01:36:49;;;;;;;45.97;6.22;;;;;;;;;;5017944;28;20029;-66
2022/01/07 01:39:16;;;;;;;41.50;6.07;;;;;;;;;;5014556;28;20034;-68
2022/01/07 01:41:43;;;;;;;38.30;4.82;;;;;;;;;;5011393;28;20627;-66
2022/01/07 01:44:36;;;;;;;41.75;6.85;;;;;;;;;;5014103;28;20022;-68
2022/01/07 01:47:04;;;;;;;33.17;5.38;;;;;;;;;;5012413;28;20033;-72
2022/01/07 01:49:31;;;;;;;35.38;6.03;;;;;;;;;;5012641;28;20144;-68
2022/01/07 01:51:58;;;;;;;32.90;5.97;;;;;;;;;;5014948;28;20022;-66
2022/01/07 01:54:25;;;;;;;40.05;5.68;;;;;;;;;;5009970;28;20034;-68
2022/01/07 01:56:52;;;;;;;45.25;6.75;;;;;;;;;;5009534;28;20057;-66
2022/01/07 02:02:35;;;;;;;43.70;7.75;;;;;;;;;;4964919;28;20049;-66
2022/01/07 02:05:03;;;;;;;65.03;8.48;;;;;;;;;;5009753;28;20022;-66
2022/01/07 02:07:30;;;;;;;45.03;6.72;;;;;;;;;;5013733;28;20026;-65
2022/01/07 02:09:59;;;;;;;42.97;5.97;;;;;;;;;;5015094;28;20021;-66
2022/01/07 02:12:26;;;;;;;44.35;6.45;;;;;;;;;;5015715;28;20034;-69
2022/01/07 02:14:57;;;;;;;51.10;6.25;;;;;;;;;;5017653;28;20488;-71
2022/01/07 02:17:31;;;;;;;55.35;6.95;;;;;;;;;;5009723;28;20136;-67
2022/01/07 02:20:25;;;;;;;53.15;6.75;;;;;;;;;;5001580;28;20037;-68
2022/01/07 02:23:00;;;;;;;63.42;8.45;;;;;;;;;;5003448;28;20069;-67
2022/01/07 02:25:28;;;;;;;50.15;7.00;;;;;;;;;;5015501;28;20473;-66
2022/01/07 02:27:56;;;;;;;31.55;6.75;;;;;;;;;;5015973;28;20021;-66
2022/01/07 02:30:27;;;;;;;48.92;7.07;;;;;;;;;;5020112;28;20021;-67
2022/01/07 02:32:55;;;;;;;41.10;6.20;;;;;;;;;;5009943;28;20030;-66
2022/01/07 02:35:22;;;;;;;40.90;6.05;;;;;;;;;;5014832;28;20056;-66
2022/01/07 02:37:49;;;;;;;45.17;7.63;;;;;;;;;;4998041;28;20702;-66
2022/01/07 02:40:17;;;;;;;34.05;7.03;;;;;;;;;;5021294;28;20046;-68
2022/01/07 02:42:44;;;;;;;49.75;7.20;;;;;;;;;;5017199;28;20079;-70
2022/01/07 02:45:13;;;;;;;54.60;7.68;;;;;;;;;;5011975;28;20030;-71
2022/01/07 02:50:22;;;;;;;51.08;8.70;;;;;;;;;;5011229;28;20042;-67
2022/01/07 02:52:49;;;;;;;58.10;9.68;;;;;;;;;;4995771;28;20556;-67
2022/01/07 02:55:18;;;;;;;34.35;6.28;;;;;;;;;;5016064;28;20072;-69
2022/01/07 02:57:45;;;;;;;40.42;7.40;;;;;;;;;;5011671;28;20049;-66
2022/01/07 03:00:12;;;;;;;43.95;6.95;;;;;;;;;;5012584;28;20018;-69
2022/01/07 03:02:40;;;;;;;30.20;4.20;;;;;;;;;;5013997;28;20014;-70
2022/01/07 03:05:08;;;;;;;30.63;4.75;;;;;;;;;;5010902;28;20044;-68
2022/01/07 03:07:35;;;;;;;40.13;5.43;;;;;;;;;;5012869;28;20018;-69
2022/01/07 03:10:02;;;;;;;35.33;5.20;;;;;;;;;;5013829;28;20370;-66
2022/01/07 03:12:29;;;;;;;28.75;4.40;;;;;;;;;;4998893;28;20470;-66
2022/01/07 03:14:56;;;;;;;22.58;3.83;;;;;;;;;;5017146;28;20053;-66
2022/01/07 03:17:23;;;;;;;27.50;3.45;;;;;;;;;;5024308;28;20481;-67
2022/01/07 03:19:50;;;;;;;31.00;4.07;;;;;;;;;;5015754;28;20037;-66
2022/01/07 03:22:20;;;;;;;27.77;3.50;;;;;;;;;;4995139;28;20026;-67
2022/01/07 03:24:51;;;;;;;23.45;3.38;;;;;;;;;;5016375;28;20025;-69
2022/01/07 03:27:32;;;;;;;15.38;2.33;;;;;;;;;;5018246;28;20024;-67
2022/01/07 03:30:03;;;;;;;19.13;3.60;;;;;;;;;;5019962;28;20044;-68
2022/01/07 03:32:30;;;;;;;23.30;3.08;;;;;;;;;;5011573;28;20022;-67
2022/01/07 03:34:58;;;;;;;18.00;2.60;;;;;;;;;;5024394;28;20048;-67
2022/01/07 03:37:25;;;;;;;18.23;2.65;;;;;;;;;;5028727;28;20424;-67
2022/01/07 03:39:52;;;;;;;17.25;2.75;;;;;;;;;;5030871;28;20032;-68
2022/01/07 03:42:19;;;;;;;22.15;3.38;;;;;;;;;;5031334;28;20028;-66
2022/01/07 03:44:46;;;;;;;24.65;3.72;;;;;;;;;;5030950;28;20033;-68
2022/01/07 03:47:13;;;;;;;18.33;3.40;;;;;;;;;;5026019;28;20022;-67
2022/01/07 03:49:40;;;;;;;25.75;3.92;;;;;;;;;;5030896;28;20026;-67
2022/01/07 03:52:07;;;;;;;20.33;3.30;;;;;;;;;;4998432;28;20033;-66
2022/01/07 03:54:36;;;;;;;28.45;4.28;;;;;;;;;;4999126;28;20168;-73
2022/01/07 03:57:04;;;;;;;21.17;3.95;;;;;;;;;;5017108;28;20057;-68
2022/01/07 03:59:32;;;;;;;23.92;3.75;;;;;;;;;;5021558;28;20133;-67
2022/01/07 04:01:59;;;;;;;23.85;3.08;;;;;;;;;;5022313;28;20075;-70
2022/01/07 04:04:26;;;;;;;23.27;3.20;;;;;;;;;;5018841;28;20033;-66
2022/01/07 04:06:53;;;;;;;14.45;2.67;;;;;;;;;;5014918;28;20021;-67
2022/01/07 04:09:20;;;;;;;19.52;2.35;;;;;;;;;;5013096;28;20048;-65
2022/01/07 04:11:48;;;;;;;17.27;2.28;;;;;;;;;;5016111;28;20021;-68
2022/01/07 04:14:16;;;;;;;18.50;2.50;;;;;;;;;;5021032;28;20715;-71
2022/01/07 04:16:43;;;;;;;8.50;2.20;;;;;;;;;;5023345;28;20029;-66
2022/01/07 04:19:11;;;;;;;14.57;2.53;;;;;;;;;;5022854;28;20085;-69
2022/01/07 04:21:38;;;;;;;16.73;2.35;;;;;;;;;;5030096;28;20044;-65
2022/01/07 04:24:05;;;;;;;11.68;2.28;;;;;;;;;;5015469;28;20679;-67
2022/01/07 04:26:32;;;;;;;13.43;2.20;;;;;;;;;;4999289;28;20415;-67
2022/01/07 04:28:59;;;;;;;14.23;2.40;;;;;;;;;;5026380;28;20030;-67
2022/01/07 04:31:26;;;;;;;13.60;2.28;;;;;;;;;;4996893;28;20034;-66
2022/01/07 04:33:56;;;;;;;9.68;2.33;;;;;;;;;;5012983;28;20314;-67
2022/01/07 04:36:23;;;;;;;10.27;2.10;;;;;;;;;;5009366;28;20061;-67
2022/01/07 04:38:50;;;;;;;15.80;2.72;;;;;;;;;;5014514;28;20072;-67
2022/01/07 04:41:17;;;;;;;18.92;2.38;;;;;;;;;;5011671;28;20022;-68
2022/01/07 04:43:44;;;;;;;10.77;2.42;;;;;;;;;;5012336;28;20064;-67
2022/01/07 04:46:11;;;;;;;20.80;2.47;;;;;;;;;;5011733;28;20045;-69
2022/01/07 04:48:38;;;;;;;9.80;1.60;;;;;;;;;;5013521;28;20363;-67
2022/01/07 04:51:05;;;;;;;12.93;2.20;;;;;;;;;;5014538;28;20363;-66
2022/01/07 04:53:33;;;;;;;10.25;2.10;;;;;;;;;;4995287;28;20040;-68
2022/01/07 04:56:00;;;;;;;9.48;1.85;;;;;;;;;;5009730;28;20041;-68
2022/01/07 04:58:27;;;;;;;18.80;2.40;;;;;;;;;;5014356;28;20022;-70
2022/01/07 05:00:54;;;;;;;14.73;2.42;;;;;;;;;;5011466;28;20030;-67
2022/01/07 05:03:21;;;;;;;11.75;2.00;;;;;;;;;;5025557;28;20060;-67
2022/01/07 05:06:00;;;;;;;13.32;2.63;;;;;;;;;;5024791;28;20022;-67
2022/01/07 05:08:27;;;;;;;17.00;2.50;;;;;;;;;;5026067;28;20045;-68
2022/01/07 05:10:54;;;;;;;13.15;2.05;;;;;;;;;;5016784;28;20445;-68
2022/01/07 05:13:21;;;;;;;11.30;2.58;;;;;;;;;;5016247;28;20037;-66
2022/01/07 05:15:48;;;;;;;11.10;2.00;;;;;;;;;;5015767;28;20554;-71
2022/01/07 05:18:15;;;;;;;14.63;1.92;;;;;;;;;;5002201;28;20038;-72
2022/01/07 05:20:42;;;;;;;11.18;1.88;;;;;;;;;;4995383;28;20477;-68
2022/01/07 05:23:09;;;;;;;13.57;2.63;;;;;;;;;;5021261;28;20029;-67
2022/01/07 05:25:38;;;;;;;22.90;2.67;;;;;;;;;;5018757;28;20032;-68
2022/01/07 05:28:06;;;;;;;12.20;2.20;;;;;;;;;;5035252;28;20021;-68
2022/01/07 05:30:46;;;;;;;14.55;1.88;;;;;;;;;;5043884;28;20036;-68
2022/01/07 05:33:22;;;;;;;17.98;2.55;;;;;;;;;;5036210;28;20021;-68
2022/01/07 05:36:01;;;;;;;13.20;2.22;;;;;;;;;;5017985;28;20042;-67
2022/01/07 05:38:33;;;;;;;9.85;1.77;;;;;;;;;;5169560;23;20112;-67
2022/01/07 05:41:00;;;;;;;9.85;2.20;;;;;;;;;;5009633;28;20109;-71
2022/01/07 05:43:28;;;;;;;18.70;2.45;;;;;;;;;;5010733;28;20524;-71
2022/01/07 05:45:56;;;;;;;17.50;2.25;;;;;;;;;;5009439;28;20030;-69
2022/01/07 05:48:24;;;;;;;8.23;1.75;;;;;;;;;;5011136;28;20382;-70
2022/01/07 05:50:51;;;;;;;13.13;1.98;;;;;;;;;;5011065;28;20489;-70
2022/01/07 05:53:18;;;;;;;9.45;1.90;;;;;;;;;;5010394;28;20033;-67
2022/01/07 05:55:45;;;;;;;13.45;2.60;;;;;;;;;;5009582;28;20397;-70
2022/01/07 05:58:12;;;;;;;12.30;2.03;;;;;;;;;;5011337;28;20188;-68
2022/01/07 06:01:09;;;;;;;10.13;2.33;;;;;;;;;;5010459;28;20037;-67
2022/01/07 06:03:54;;;;;;;12.43;1.77;;;;;;;;;;5011061;28;20064;-67
2022/01/07 06:06:21;;;;;;;12.57;2.30;;;;;;;;;;5012780;28;20033;-66
2022/01/07 06:08:48;;;;;;;10.70;2.00;;;;;;;;;;5011124;28;20026;-67
2022/01/07 06:11:15;;;;;;;12.88;1.88;;;;;;;;;;5011312;28;20033;-68
2022/01/07 06:13:42;;;;;;;15.38;2.47;;;;;;;;;;5010569;28;20499;-67
2022/01/07 06:16:09;;;;;;;17.02;2.20;;;;;;;;;;5011297;28;20211;-67
2022/01/07 06:18:40;;;;;;;10.10;1.98;;;;;;;;;;5011236;28;20026;-68
2022/01/07 06:21:07;;;;;;;12.75;2.22;;;;;;;;;;5011205;28;20500;-67
2022/01/07 06:23:34;;;;;;;15.82;2.13;;;;;;;;;;5009946;28;20026;-69
2022/01/07 06:26:01;;;;;;;16.83;2.75;;;;;;;;;;5010281;28;20040;-67
2022/01/07 06:28:28;;;;;;;11.63;1.90;;;;;;;;;;5014637;28;20466;-68
2022/01/07 06:30:55;;;;;;;15.07;1.98;;;;;;;;;;5014436;28;20030;-69
2022/01/07 06:33:22;;;;;;;33.78;3.13;;;;;;;;;;5014371;28;20492;-68
2022/01/07 06:35:49;;;;;;;16.15;2.47;;;;;;;;;;5014367;28;20068;-68
2022/01/07 06:38:16;;;;;;;11.80;1.90;;;;;;;;;;5025990;28;20128;-68
2022/01/07 06:40:43;;;;;;;10.57;2.20;;;;;;;;;;5034359;28;20030;-67
2022/01/07 06:43:10;;;;;;;9.95;2.47;;;;;;;;;;5034083;28;20021;-68
2022/01/07 06:45:37;;;;;;;12.70;2.20;;;;;;;;;;5033942;28;20032;-69
2022/01/07 06:48:04;;;;;;;15.15;2.60;;;;;;;;;;5034292;28;20032;-68
2022/01/07 06:50:31;;;;;;;10.07;2.83;;;;;;;;;;5034469;28;20037;-68
2022/01/07 06:52:58;;;;;;;20.52;3.40;;;;;;;;;;5034366;28;20033;-68
2022/01/07 06:55:25;;;;;;;17.00;3.83;;;;;;;;;;5032866;28;20029;-68
2022/01/07 06:57:52;;;;;;;13.82;4.75;;;;;;;;;;5034170;28;20026;-68
2022/01/07 07:00:19;;;;;;;17.90;4.28;;;;;;;;;;5034071;28;20036;-68
2022/01/07 07:02:46;;;;;;;22.70;3.95;;;;;;;;;;5034150;28;20045;-73
2022/01/07 07:05:13;;;;;;;12.57;3.00;;;;;;;;;;5033842;28;20132;-73
2022/01/07 07:07:40;;;;;;;12.63;2.67;;;;;;;;;;5033970;28;20021;-69
2022/01/07 07:10:07;;;;;;;14.02;2.83;;;;;;;;;;5033790;28;20029;-69
2022/01/07 07:12:34;;;;;;;14.40;2.63;;;;;;;;;;5034149;28;20045;-69
2022/01/07 07:15:02;;;;;;;7.93;1.80;;;;;;;;;;5033296;28;20096;-69
2022/01/07 07:17:29;;;;;;;18.92;2.60;;;;;;;;;;5033104;28;20049;-69
2022/01/07 07:19:56;;;;;;;11.10;1.92;;;;;;;;;;5016264;28;20488;-72
2022/01/07 07:22:23;;;;;;;11.93;2.33;;;;;;;;;;5033895;28;20408;-72
2022/01/07 07:24:50;;;;;;;12.77;2.30;;;;;;;;;;5032685;28;20033;-71
2022/01/07 07:27:17;;;;;;;12.18;2.47;;;;;;;;;;5033790;28;20490;-68
2022/01/07 07:29:44;;;;;;;14.90;2.58;;;;;;;;;;5033754;28;20156;-72
2022/01/07 07:32:14;;;;;;;23.13;3.03;;;;;;;;;;5033145;28;20588;-72
2022/01/07 07:37:27;;;;;;;30.30;2.72;;;;;;;;;;5032843;28;20114;-68
2022/01/07 07:39:54;;;;;;;16.02;2.45;;;;;;;;;;5033522;28;20505;-69
2022/01/07 07:42:21;;;;;;;13.60;2.47;;;;;;;;;;5033338;28;20025;-68
2022/01/07 07:44:48;;;;;;;23.58;3.28;;;;;;;;;;5033049;28;20021;-68
2022/01/07 07:47:15;;;;;;;28.50;3.38;;;;;;;;;;5032506;28;20045;-69
2022/01/07 07:49:42;;;;;;;18.73;2.63;;;;;;;;;;5033057;28;20025;-69
2022/01/07 07:52:09;;;;;;;13.75;2.40;;;;;;;;;;5033128;28;20233;-68
2022/01/07 07:54:36;;;;;;;14.70;2.50;;;;;;;;;;5015132;28;20396;-69
2022/01/07 07:57:03;;;;;;;16.48;2.58;;;;;;;;;;5032538;28;20025;-68
2022/01/07 07:59:30;;;;;;;10.40;2.03;;;;;;;;;;5032963;28;20025;-69
2022/01/07 08:01:57;;;;;;;14.27;2.10;;;;;;;;;;5031193;28;20030;-68
2022/01/07 08:04:24;;;;;;;12.70;2.25;;;;;;;;;;5030278;28;20058;-69
2022/01/07 08:06:51;;;;;;;17.30;2.92;;;;;;;;;;5029587;28;20040;-67
2022/01/07 08:09:19;;;;;;;12.18;2.33;;;;;;;;;;5032272;28;20101;-69
2022/01/07 08:11:51;;;;;;;21.95;2.92;;;;;;;;;;5032567;28;20026;-69
2022/01/07 08:17:05;;;;;;;10.55;2.70;;;;;;;;;;5032481;28;20056;-68
2022/01/07 08:19:32;;;;;;;14.63;2.83;;;;;;;;;;5014625;28;20112;-68
2022/01/07 08:21:59;;;;;;;12.05;2.45;;;;;;;;;;5032436;28;20033;-67
2022/01/07 08:24:26;;;;;;;15.32;2.20;;;;;;;;;;5032244;28;20881;-69
2022/01/07 08:26:53;;;;;;;15.90;2.80;;;;;;;;;;5031880;28;20047;-68
2022/01/07 08:29:23;;;;;;;17.77;2.45;;;;;;;;;;5032378;28;20104;-69
2022/01/07 08:37:03;;;;;;;22.73;3.03;;;;;;;;;;5031504;28;20404;-68
2022/01/07 08:39:30;;;;;;;10.77;2.70;;;;;;;;;;5032165;28;20489;-69
2022/01/07 08:41:57;;;;;;;13.68;2.50;;;;;;;;;;5031844;28;20065;-68
2022/01/07 08:44:26;;;;;;;16.88;2.55;;;;;;;;;;5013424;28;20052;-68
2022/01/07 08:46:53;;;;;;;16.38;2.50;;;;;;;;;;5031898;28;20087;-68
2022/01/07 08:49:21;;;;;;;18.10;2.38;;;;;;;;;;5031110;28;20493;-69
2022/01/07 08:51:48;;;;;;;22.20;2.28;;;;;;;;;;5031444;28;20104;-68
2022/01/07 08:54:15;;;;;;;18.30;3.20;;;;;;;;;;5031696;28;20083;-69
2022/01/07 08:56:42;;;;;;;17.95;2.38;;;;;;;;;;5031195;28;20386;-68
2022/01/07 08:59:09;;;;;;;12.75;2.72;;;;;;;;;;5031983;28;20030;-68
2022/01/07 09:01:36;;;;;;;23.77;2.90;;;;;;;;;;5031670;28;20079;-68
2022/01/07 09:04:03;;;;;;;15.35;2.92;;;;;;;;;;5031345;28;20025;-68
2022/01/07 09:06:30;;;;;;;17.13;3.03;;;;;;;;;;5030868;28;20481;-68
2022/01/07 09:08:57;;;;;;;19.27;3.60;;;;;;;;;;5031355;28;20026;-68
2022/01/07 09:11:24;;;;;;;17.30;3.28;;;;;;;;;;5031168;28;20049;-68
2022/01/07 09:13:52;;;;;;;27.48;3.92;;;;;;;;;;5031196;28;20021;-68
2022/01/07 09:16:20;;;;;;;22.63;3.53;;;;;;;;;;5030550;28;20164;-67
2022/01/07 09:18:48;;;;;;;27.35;3.40;;;;;;;;;;5030892;28;20029;-68
2022/01/07 09:21:16;;;;;;;34.83;3.58;;;;;;;;;;5030969;28;20500;-68
2022/01/07 09:23:43;;;;;;;37.40;4.28;;;;;;;;;;5013503;28;20033;-67
2022/01/07 09:26:10;;;;;;;63.10;5.38;;;;;;;;;;5030843;28;20870;-68
2022/01/07 09:28:37;;;;;;;59.20;4.90;;;;;;;;;;5030989;28;20029;-68
2022/01/07 09:31:04;;;;;;;52.53;5.30;;;;;;;;;;5031160;28;20104;-68
2022/01/07 09:33:31;;;;;;;45.05;4.63;;;;;;;;;;5031044;28;20643;-67
2022/01/07 09:35:58;;;;;;;53.42;5.15;;;;;;;;;;5030348;28;20061;-69
2022/01/07 09:38:26;;;;;;;48.95;4.82;;;;;;;;;;5030587;28;20045;-68
2022/01/07 09:40:53;;;;;;;69.70;7.40;;;;;;;;;;5031086;28;20034;-70
2022/01/07 09:43:21;;;;;;;71.00;5.85;;;;;;;;;;5030622;28;20029;-68
2022/01/07 09:45:48;;;;;;;236.73;18.20;;;;;;;;;;5030633;28;20014;-69
2022/01/07 09:48:15;;;;;;;99.30;8.98;;;;;;;;;;5030842;28;20084;-68
2022/01/07 09:50:42;;;;;;;96.82;9.68;;;;;;;;;;5030828;28;20029;-69
2022/01/07 09:53:12;;;;;;;102.75;8.98;;;;;;;;;;5030783;28;20037;-68
2022/01/07 09:55:39;;;;;;;117.20;9.32;;;;;;;;;;5030352;28;20071;-68
2022/01/07 09:58:07;;;;;;;91.78;10.50;;;;;;;;;;5030354;28;20021;-69
2022/01/07 10:00:40;;;;;;;139.13;13.30;;;;;;;;;;5031921;28;20441;-68
2022/01/07 10:03:08;;;;;;;114.03;11.20;;;;;;;;;;5035110;28;20025;-68
2022/01/07 10:05:41;;;;;;;127.95;10.77;;;;;;;;;;5034608;28;20036;-67
2022/01/07 10:08:28;;;;;;;101.93;10.07;;;;;;;;;;5016810;28;20036;-69
2022/01/07 10:11:11;;;;;;;173.13;14.65;;;;;;;;;;5016771;28;20025;-68
2022/01/07 10:13:39;;;;;;;143.30;12.23;;;;;;;;;;5034543;28;20065;-67
2022/01/07 10:16:15;;;;;;;218.82;18.17;;;;;;;;;;5034193;28;20138;-67
2022/01/07 10:18:43;;;;;;;123.72;12.73;;;;;;;;;;5034589;28;20048;-67
2022/01/07 10:21:11;;;;;;;131.27;11.80;;;;;;;;;;5034551;28;20029;-68
2022/01/07 10:23:38;;;;;;;131.85;12.88;;;;;;;;;;5034322;28;20014;-68
2022/01/07 10:26:11;;;;;;;114.88;10.70;;;;;;;;;;5034199;28;20166;-68
2022/01/07 10:28:38;;;;;;;84.85;7.93;;;;;;;;;;5033877;28;20413;-68
2022/01/07 10:31:08;;;;;;;70.68;8.30;;;;;;;;;;5034253;28;20022;-68
2022/01/07 10:33:41;;;;;;;69.55;7.55;;;;;;;;;;5031302;28;20076;-69
2022/01/07 10:36:08;;;;;;;79.38;7.18;;;;;;;;;;5033813;28;20127;-68
2022/01/07 10:38:36;;;;;;;92.43;8.57;;;;;;;;;;5033283;28;20519;-67
2022/01/07 10:41:04;;;;;;;70.65;7.70;;;;;;;;;;5033458;28;20044;-67
2022/01/07 10:43:35;;;;;;;63.20;8.20;;;;;;;;;;5031152;28;20048;-67
2022/01/07 10:46:13;;;;;;;74.07;7.68;;;;;;;;;;5033681;28;20028;-68
2022/01/07 10:48:42;;;;;;;46.88;6.57;;;;;;;;;;5033417;28;20048;-68
2022/01/07 10:51:13;;;;;;;57.45;6.43;;;;;;;;;;5033813;28;20715;-67
2022/01/07 10:53:40;;;;;;;42.90;5.60;;;;;;;;;;5033680;28;20030;-69
2022/01/07 10:56:10;;;;;;;52.17;5.65;;;;;;;;;;5033637;28;20041;-68
2022/01/07 10:58:56;;;;;;;59.53;6.68;;;;;;;;;;5033490;28;20065;-68
2022/01/07 11:01:23;;;;;;;70.38;6.80;;;;;;;;;;5033675;28;20105;-67
2022/01/07 11:03:52;;;;;;;44.88;5.07;;;;;;;;;;5033606;28;20108;-67
2022/01/07 11:06:20;;;;;;;54.53;6.03;;;;;;;;;;5033689;28;20025;-67
2022/01/07 11:08:49;;;;;;;42.10;4.85;;;;;;;;;;5032831;28;20029;-67
2022/01/07 11:11:16;;;;;;;42.95;4.25;;;;;;;;;;5032918;28;20420;-68
2022/01/07 11:13:43;;;;;;;35.22;5.25;;;;;;;;;;5032856;28;20060;-69
2022/01/07 11:16:10;;;;;;;32.30;4.53;;;;;;;;;;5032997;28;20039;-68
2022/01/07 11:18:38;;;;;;;135.18;24.45;;;;;;;;;;5033038;28;20053;-67
2022/01/07 11:21:05;;;;;;;113.47;8.30;;;;;;;;;;5032417;28;20021;-65
2022/01/07 11:23:34;;;;;;;39.58;5.85;;;;;;;;;;5012015;28;20241;-67
2022/01/07 11:26:02;;;;;;;64.18;6.10;;;;;;;;;;5005688;28;20018;-62
2022/01/07 11:28:29;;;;;;;67.93;6.32;;;;;;;;;;5020570;28;20036;-65
2022/01/07 11:31:07;;;;;;;55.95;6.30;;;;;;;;;;5032750;28;20371;-65
2022/01/07 11:33:34;;;;;;;168.90;15.98;;;;;;;;;;5032461;28;20029;-62
2022/01/07 11:36:01;;;;;;;67.25;5.90;;;;;;;;;;5031487;28;20112;-65
2022/01/07 11:38:35;;;;;;;45.83;5.88;;;;;;;;;;5032000;28;20037;-62
2022/01/07 11:41:03;;;;;;;50.15;4.43;;;;;;;;;;5032406;28;20051;-63
2022/01/07 11:43:35;;;;;;;47.33;5.47;;;;;;;;;;5031421;28;20068;-65
2022/01/07 11:46:21;;;;;;;53.13;4.80;;;;;;;;;;5031761;28;20108;-62
2022/01/07 11:48:49;;;;;;;43.10;5.30;;;;;;;;;;5031155;28;20029;-63
2022/01/07 11:51:16;;;;;;;123.43;8.60;;;;;;;;;;5031733;28;20037;-62
2022/01/07 11:53:43;;;;;;;1999.90;999.90;;;;;;;;;;5032128;28;20056;-63
2022/01/07 11:56:12;;;;;;;1999.90;999.90;;;;;;;;;;5030853;28;20037;-63
2022/01/07 11:58:39;;;;;;;957.85;469.00;;;;;;;;;;5031927;28;20075;-66
2022/01/07 12:01:06;;;;;;;1999.90;999.90;;;;;;;;;;5032447;28;20033;-63
2022/01/07 12:03:40;;;;;;;1999.90;999.90;;;;;;;;;;5032250;28;20017;-64
2022/01/07 12:06:31;;;;;;;1999.90;999.90;;;;;;;;;;5032417;28;20051;-63
2022/01/07 12:09:11;;;;;;;1999.90;999.90;;;;;;;;;;5032544;28;20108;-64
2022/01/07 12:11:40;;;;;;;1999.90;999.90;;;;;;;;;;5032483;28;20486;-64
2022/01/07 12:14:13;;;;;;;1999.90;999.90;;;;;;;;;;5032216;28;20463;-63
2022/01/07 12:16:43;;;;;;;1805.82;789.22;;;;;;;;;;5031764;28;20037;-63
2022/01/07 12:19:13;;;;;;;1999.90;999.90;;;;;;;;;;5031123;28;20025;-64
2022/01/07 12:21:40;;;;;;;45.22;6.47;;;;;;;;;;5032106;28;20033;-64
2022/01/07 12:24:11;;;;;;;31.58;5.00;;;;;;;;;;5031175;28;20033;-63
2022/01/07 12:26:38;;;;;;;50.10;5.15;;;;;;;;;;5032093;28;20120;-64
2022/01/07 12:29:05;;;;;;;39.80;5.57;;;;;;;;;;5030968;28;20022;-65
2022/01/07 12:31:33;;;;;;;29.35;3.95;;;;;;;;;;5031657;28;20076;-63
2022/01/07 12:34:04;;;;;;;40.58;9.88;;;;;;;;;;5031531;28;20086;-66
2022/01/07 12:36:34;;;;;;;45.03;9.43;;;;;;;;;;5013616;28;20593;-63
2022/01/07 12:39:01;;;;;;;36.47;9.25;;;;;;;;;;5012288;28;20053;-64
2022/01/07 12:41:28;;;;;;;59.17;8.35;;;;;;;;;;5031607;28;20385;-65
2022/01/07 12:44:25;;;;;;;34.10;5.47;;;;;;;;;;5031706;28;20017;-64
2022/01/07 12:46:54;;;;;;;37.65;5.78;;;;;;;;;;5015091;28;20041;-67
2022/01/07 12:49:32;;;;;;;47.63;6.38;;;;;;;;;;5030436;28;20132;-64
2022/01/07 12:52:04;;;;;;;65.80;8.15;;;;;;;;;;5031782;28;20029;-64
2022/01/07 12:54:31;;;;;;;47.13;7.97;;;;;;;;;;5031606;28;20384;-64
2022/01/07 12:56:58;;;;;;;36.25;6.47;;;;;;;;;;5031389;28;20619;-65
2022/01/07 12:59:26;;;;;;;49.53;6.88;;;;;;;;;;5031088;28;20401;-65
2022/01/07 13:01:54;;;;;;;25.27;5.65;;;;;;;;;;5030499;28;20040;-66
2022/01/07 13:04:22;;;;;;;26.60;4.32;;;;;;;;;;5031346;28;20087;-64
2022/01/07 13:06:53;;;;;;;23.92;4.60;;;;;;;;;;5031245;28;20026;-64
2022/01/07 13:09:22;;;;;;;57.65;5.63;;;;;;;;;;5030865;28;20129;-64
2022/01/07 13:11:50;;;;;;;33.33;3.45;;;;;;;;;;5031301;28;20041;-65
2022/01/07 13:14:17;;;;;;;14.70;3.10;;;;;;;;;;5031260;28;20040;-64
2022/01/07 13:16:45;;;;;;;22.88;3.25;;;;;;;;;;5030847;28;20040;-66
2022/01/07 13:19:19;;;;;;;15.98;2.60;;;;;;;;;;5030973;28;20018;-63
2022/01/07 13:21:49;;;;;;;16.88;3.15;;;;;;;;;;5030520;28;20108;-64
2022/01/07 13:24:17;;;;;;;23.85;3.13;;;;;;;;;;5031404;28;20112;-67
2022/01/07 13:26:45;;;;;;;16.13;2.47;;;;;;;;;;5030345;28;20439;-68
2022/01/07 13:29:20;;;;;;;15.30;2.40;;;;;;;;;;5030708;28;20683;-68
2022/01/07 13:31:48;;;;;;;18.83;2.58;;;;;;;;;;5029267;28;20033;-67
2022/01/07 13:34:28;;;;;;;8.68;2.33;;;;;;;;;;5029480;28;20010;-68
2022/01/07 13:37:21;;;;;;;19.15;2.25;;;;;;;;;;5029575;28;20068;-67
2022/01/07 13:39:48;;;;;;;16.02;2.30;;;;;;;;;;5026990;28;20041;-62
2022/01/07 13:42:33;;;;;;;17.40;2.50;;;;;;;;;;5030692;28;20104;-63
2022/01/07 13:45:04;;;;;;;11.88;1.95;;;;;;;;;;5030755;28;20042;-64
2022/01/07 13:47:32;;;;;;;6.97;2.42;;;;;;;;;;5029034;28;20040;-64
2022/01/07 13:50:10;;;;;;;19.17;2.50;;;;;;;;;;5004370;28;20203;-65
2022/01/07 13:52:38;;;;;;;30.30;3.15;;;;;;;;;;5016168;28;20532;-65
2022/01/07 13:55:05;;;;;;;19.20;3.13;;;;;;;;;;5016265;28;20034;-62
2022/01/07 13:57:37;;;;;;;22.73;3.08;;;;;;;;;;5021738;28;20052;-62
2022/01/07 14:00:15;;;;;;;18.83;2.80;;;;;;;;;;5006657;28;20053;-62
2022/01/07 14:02:50;;;;;;;18.88;2.40;;;;;;;;;;5024389;28;20129;-67
2022/01/07 14:05:19;;;;;;;12.38;2.15;;;;;;;;;;5021020;28;20500;-64
2022/01/07 14:07:50;;;;;;;10.52;2.63;;;;;;;;;;5009308;28;20055;-63
2022/01/07 14:10:17;;;;;;;21.93;3.23;;;;;;;;;;4998475;28;20033;-63
2022/01/07 14:12:50;;;;;;;18.48;2.22;;;;;;;;;;5009317;28;20287;-63
2022/01/07 14:15:19;;;;;;;16.73;2.53;;;;;;;;;;5013956;28;20403;-65
2022/01/07 14:17:46;;;;;;;17.08;2.53;;;;;;;;;;5009569;28;20022;-64
2022/01/07 14:20:14;;;;;;;22.75;2.67;;;;;;;;;;5009214;28;20049;-66
2022/01/07 14:22:47;;;;;;;21.50;2.92;;;;;;;;;;5007985;28;20029;-64
2022/01/07 14:25:16;;;;;;;33.17;3.10;;;;;;;;;;5012773;28;20029;-64
2022/01/07 14:27:43;;;;;;;23.15;3.40;;;;;;;;;;5009208;28;20025;-64
2022/01/07 14:30:15;;;;;;;28.02;3.53;;;;;;;;;;5008189;28;20025;-67
2022/01/07 14:32:42;;;;;;;21.60;3.08;;;;;;;;;;5010460;28;20405;-65
2022/01/07 14:35:10;;;;;;;13.70;2.42;;;;;;;;;;5008745;28;20619;-65
2022/01/07 14:37:38;;;;;;;21.83;2.90;;;;;;;;;;5009601;28;20057;-66
2022/01/07 14:40:07;;;;;;;20.42;2.88;;;;;;;;;;5009614;28;20065;-64
2022/01/07 14:42:34;;;;;;;10.20;2.38;;;;;;;;;;5015515;28;20425;-63
2022/01/07 14:45:03;;;;;;;18.35;2.83;;;;;;;;;;5013395;28;20115;-62
2022/01/07 14:47:30;;;;;;;21.33;2.83;;;;;;;;;;5010609;28;20512;-63
2022/01/07 14:49:58;;;;;;;12.52;2.80;;;;;;;;;;5013306;28;20037;-62
2022/01/07 14:52:25;;;;;;;20.48;2.35;;;;;;;;;;5016575;28;20033;-63
2022/01/07 14:54:52;;;;;;;11.75;2.35;;;;;;;;;;5016862;28;20037;-63